Observations for MILANO MALPENSA, Italy (LIMC)

LIMC 260450Z 01006KT CAVOK 19/19 Q1018 NOSIG
LIMC 260420Z 03005KT CAVOK 19/19 Q1018 NOSIG
LIMC 260350Z 02004KT CAVOK 19/19 Q1018 NOSIG
LIMC 260320Z 03004KT CAVOK 19/19 Q1018 NOSIG
LIMC 260250Z 01007KT CAVOK 19/19 Q1018 NOSIG
LIMC 260220Z 02006KT CAVOK 20/19 Q1018 NOSIG
LIMC 260150Z 02005KT CAVOK 20/19 Q1019 NOSIG
LIMC 260120Z 02005KT CAVOK 20/19 Q1019 NOSIG
LIMC 260050Z 02003KT 9999 SCT080 21/19 Q1019 NOSIG  
LIMC 260020Z 36007KT CAVOK 21/19 Q1019 NOSIG
LIMC 252350Z 35005KT CAVOK 22/19 Q1019 NOSIG
LIMC 252320Z 01007KT CAVOK 22/19 Q1019 NOSIG
LIMC 252250Z 02004KT CAVOK 22/18 Q1019 NOSIG
LIMC 252220Z 01004KT CAVOK 23/18 Q1019 NOSIG
LIMC 252150Z 06003KT 020V080 CAVOK 23/18 Q1019 NOSIG
LIMC 252120Z 04004KT CAVOK 22/18 Q1019 NOSIG
LIMC 252050Z 03004KT CAVOK 22/18 Q1019 NOSIG
LIMC 252020Z 36003KT CAVOK 25/18 Q1019 NOSIG
LIMC 251950Z 05002KT CAVOK 24/18 Q1018 NOSIG
LIMC 251920Z VRB01KT CAVOK 25/18 Q1018 NOSIG
LIMC 251850Z 21004KT CAVOK 27/17 Q1018 NOSIG
LIMC 251820Z 23005KT 180V260 CAVOK 28/17 Q1017 NOSIG
LIMC 251750Z 24006KT 210V280 CAVOK 29/17 Q1017 NOSIG
LIMC 251720Z 25006KT 220V290 CAVOK 29/17 Q1017 NOSIG
LIMC 251650Z 23008KT CAVOK 29/17 Q1017 NOSIG
LIMC 251620Z 24007KT 200V270 CAVOK 30/17 Q1017 NOSIG
LIMC 251550Z 25007KT 200V320 9999 FEW050 30/16 Q1017 NOSIG  
LIMC 251520Z VRB05KT 9999 FEW050 31/16 Q1017 NOSIG  
LIMC 251450Z 22007KT 180V250 9999 FEW050 31/17 Q1017 NOSIG  
LIMC 251420Z VRB05KT 9999 FEW050 30/17 Q1017 NOSIG  
LIMC 251350Z 24005KT 160V300 9999 SCT050 30/17 Q1017 NOSIG  
LIMC 251320Z VRB05KT 9999 SCT050 30/17 Q1018 NOSIG  
LIMC 251250Z 25007KT 210V340 9999 FEW050 30/17 Q1018 NOSIG  
LIMC 251220Z VRB06KT 9999 FEW040 30/17 Q1018 NOSIG  
LIMC 251150Z VRB06KT 9999 SCT040 29/17 Q1018 NOSIG  
LIMC 251120Z VRB04KT 9999 FEW040 29/17 Q1019 NOSIG  
LIMC 251050Z VRB04KT 9999 FEW040 28/17 Q1019 NOSIG  
LIMC 251020Z 23003KT 160V290 CAVOK 28/17 Q1019 NOSIG
LIMC 250950Z 25004KT 210V300 CAVOK 27/17 Q1019 NOSIG
LIMC 250920Z VRB03KT CAVOK 27/17 Q1019 NOSIG
LIMC 250850Z 05003KT 330V140 CAVOK 27/18 Q1019 NOSIG
LIMC 250820Z 02003KT 320V090 CAVOK 25/18 Q1019 NOSIG
LIMC 250750Z 03005KT 360V070 CAVOK 24/18 Q1019 NOSIG
LIMC 250720Z 36005KT 330V050 CAVOK 24/19 Q1019 NOSIG
LIMC 250650Z 01006KT CAVOK 23/19 Q1019 NOSIG
LIMC 250620Z 01004KT CAVOK 21/20 Q1019 NOSIG
LIMC 250550Z 01005KT CAVOK 20/20 Q1019 NOSIG
LIMC 250520Z 34007KT CAVOK 20/20 Q1019 NOSIG
LIMC 250450Z 36005KT CAVOK 19/19 Q1019 NOSIG
LIMC 250420Z 02004KT CAVOK 19/19 Q1018 NOSIG